Monday, June 25, 2018, 12:43 AM GMT
Back to Local

CWDQ, La Tuque

Location: , , Canada Lat: 47.417
Local Time: 12:43 AM GMT ( 0:43 GMT) Lon: -72.8
Time Zone: GMT Elev: 554 ft

Show me the last for .
Show Coded

Time T Td Feel RH Dir Speed Gust Alt SLP Vis Weather Sky Remarks
2018-06-25 00:00 70 38 - 30 10° 1 - - 29.88 0 None
2018-06-24 23:00 71 39 - 31 300° 2 - - 29.87 0 None
2018-06-24 22:00 71 36 - 28 320° 7 - - 29.87 0 None
2018-06-24 21:00 70 43 - 37 320° 2 - - 29.87 0 None
2018-06-24 20:00 68 44 - 41 330° 3 - - 29.88 0 None
2018-06-24 19:00 64 45 - 50 360° 7 - - 29.88 0 None
2018-06-24 18:00 62 48 - 58 330° 7 - - 29.90 0 None
2018-06-24 17:00 58 48 - 69 350° 8 - - 29.90 0 None
2018-06-24 16:00 56 49 - 77 350° 8 - - 29.90 0 None
2018-06-24 15:00 55 48 - 75 340° 8 - - 29.89 0 None
2018-06-24 14:00 56 48 - 74 350° 8 - - 29.87 0 None
2018-06-24 13:00 56 48 - 75 350° 9 - - 29.85 0 None
2018-06-24 12:00 56 47 - 70 360° 7 - - 29.84 0 None
2018-06-24 11:00 56 45 - 67 350° 5 - - 29.82 0 None
2018-06-24 10:00 54 44 - 69 340° 5 - - 29.80 0 None
2018-06-24 09:00 56 47 - 71 340° 7 - - 29.78 0 None
2018-06-24 08:00 58 52 - 79 360° 3 - - 29.76 0 None
2018-06-24 07:00 57 53 - 84 350° 1 - - 29.77 0 None
2018-06-24 06:00 59 56 - 90 130° 1 - - 29.77 0 None
2018-06-24 05:00 60 56 - 86 110° 1 - - 29.77 0 None
2018-06-24 04:00 64 53 - 69 160° 3 - - 29.77 0 None
2018-06-24 03:00 65 53 - 65 160° 3 - - 29.77 0 None
2018-06-24 02:00 67 56 - 68 160° 5 - - 29.77 0 None
2018-06-24 01:00 67 56 - 68 170° 3 - - 29.76 0 None

Support USWX by starting your Amazon purchase here.